sensor_id;sensor_type;location;lat;lon;timestamp;P1;durP1;ratioP1;P2;durP2;ratioP2
36827;SDS011;22766;48.042;11.192;2023-11-19T00:00:08;2.15;;;0.80;;
36827;SDS011;22766;48.042;11.192;2023-11-19T00:02:40;1.15;;;0.85;;
36827;SDS011;22766;48.042;11.192;2023-11-19T00:05:09;2.13;;;1.10;;
36827;SDS011;22766;48.042;11.192;2023-11-19T00:07:39;2.38;;;0.85;;
36827;SDS011;22766;48.042;11.192;2023-11-19T00:10:13;2.03;;;1.10;;
36827;SDS011;22766;48.042;11.192;2023-11-19T00:12:46;2.00;;;1.00;;
36827;SDS011;22766;48.042;11.192;2023-11-19T00:15:13;1.17;;;0.80;;
36827;SDS011;22766;48.042;11.192;2023-11-19T00:17:41;1.38;;;0.95;;
36827;SDS011;22766;48.042;11.192;2023-11-19T00:20:12;0.85;;;0.70;;
36827;SDS011;22766;48.042;11.192;2023-11-19T00:22:43;2.40;;;1.00;;
36827;SDS011;22766;48.042;11.192;2023-11-19T00:25:13;1.65;;;0.90;;
36827;SDS011;22766;48.042;11.192;2023-11-19T00:27:40;1.67;;;0.95;;
36827;SDS011;22766;48.042;11.192;2023-11-19T00:30:07;2.20;;;1.00;;
36827;SDS011;22766;48.042;11.192;2023-11-19T00:32:37;1.42;;;0.80;;
36827;SDS011;22766;48.042;11.192;2023-11-19T00:35:06;2.05;;;1.00;;
36827;SDS011;22766;48.042;11.192;2023-11-19T00:37:34;1.65;;;0.80;;
36827;SDS011;22766;48.042;11.192;2023-11-19T00:40:01;1.63;;;0.80;;
36827;SDS011;22766;48.042;11.192;2023-11-19T00:42:31;1.50;;;1.00;;
36827;SDS011;22766;48.042;11.192;2023-11-19T00:44:58;1.67;;;1.02;;
36827;SDS011;22766;48.042;11.192;2023-11-19T00:47:25;2.17;;;1.10;;
36827;SDS011;22766;48.042;11.192;2023-11-19T00:49:52;1.83;;;0.90;;
36827;SDS011;22766;48.042;11.192;2023-11-19T00:52:19;1.52;;;0.80;;
36827;SDS011;22766;48.042;11.192;2023-11-19T00:54:46;1.92;;;0.60;;
36827;SDS011;22766;48.042;11.192;2023-11-19T00:57:12;1.50;;;0.88;;
36827;SDS011;22766;48.042;11.192;2023-11-19T00:59:42;3.83;;;1.23;;
36827;SDS011;22766;48.042;11.192;2023-11-19T01:02:09;1.65;;;1.08;;
36827;SDS011;22766;48.042;11.192;2023-11-19T01:04:36;1.40;;;0.77;;
36827;SDS011;22766;48.042;11.192;2023-11-19T01:07:03;1.33;;;0.73;;
36827;SDS011;22766;48.042;11.192;2023-11-19T01:09:32;0.95;;;0.65;;
36827;SDS011;22766;48.042;11.192;2023-11-19T01:12:02;1.40;;;0.70;;
36827;SDS011;22766;48.042;11.192;2023-11-19T01:14:29;1.35;;;0.65;;
36827;SDS011;22766;48.042;11.192;2023-11-19T01:16:56;0.80;;;0.60;;
36827;SDS011;22766;48.042;11.192;2023-11-19T01:19:24;1.83;;;1.05;;
36827;SDS011;22766;48.042;11.192;2023-11-19T01:21:51;1.75;;;0.93;;
36827;SDS011;22766;48.042;11.192;2023-11-19T01:24:18;2.25;;;1.10;;
36827;SDS011;22766;48.042;11.192;2023-11-19T01:26:45;1.65;;;0.88;;
36827;SDS011;22766;48.042;11.192;2023-11-19T01:29:13;1.63;;;1.00;;
36827;SDS011;22766;48.042;11.192;2023-11-19T01:31:41;2.58;;;0.80;;
36827;SDS011;22766;48.042;11.192;2023-11-19T01:34:08;3.50;;;0.93;;
36827;SDS011;22766;48.042;11.192;2023-11-19T01:36:36;1.48;;;0.68;;
36827;SDS011;22766;48.042;11.192;2023-11-19T01:39:04;0.70;;;0.47;;
36827;SDS011;22766;48.042;11.192;2023-11-19T01:41:34;1.17;;;0.60;;
36827;SDS011;22766;48.042;11.192;2023-11-19T01:46:29;1.15;;;0.77;;
36827;SDS011;22766;48.042;11.192;2023-11-19T01:49:00;1.60;;;0.70;;
36827;SDS011;22766;48.042;11.192;2023-11-19T01:51:27;2.65;;;0.60;;
36827;SDS011;22766;48.042;11.192;2023-11-19T01:53:55;3.53;;;0.70;;
36827;SDS011;22766;48.042;11.192;2023-11-19T01:56:23;0.85;;;0.65;;
36827;SDS011;22766;48.042;11.192;2023-11-19T01:58:53;1.23;;;0.80;;
36827;SDS011;22766;48.042;11.192;2023-11-19T02:01:21;1.10;;;0.73;;
36827;SDS011;22766;48.042;11.192;2023-11-19T02:03:48;1.45;;;0.65;;
36827;SDS011;22766;48.042;11.192;2023-11-19T02:06:15;1.33;;;0.63;;
36827;SDS011;22766;48.042;11.192;2023-11-19T02:08:42;4.63;;;0.90;;
36827;SDS011;22766;48.042;11.192;2023-11-19T02:11:10;0.88;;;0.60;;
36827;SDS011;22766;48.042;11.192;2023-11-19T02:13:38;1.05;;;0.60;;
36827;SDS011;22766;48.042;11.192;2023-11-19T02:16:08;1.13;;;0.70;;
36827;SDS011;22766;48.042;11.192;2023-11-19T02:18:36;1.60;;;0.50;;
36827;SDS011;22766;48.042;11.192;2023-11-19T02:21:03;0.88;;;0.75;;
36827;SDS011;22766;48.042;11.192;2023-11-19T02:23:33;0.75;;;0.50;;
36827;SDS011;22766;48.042;11.192;2023-11-19T02:26:02;0.70;;;0.60;;
36827;SDS011;22766;48.042;11.192;2023-11-19T02:28:32;1.38;;;0.50;;
36827;SDS011;22766;48.042;11.192;2023-11-19T02:30:59;1.15;;;0.40;;
36827;SDS011;22766;48.042;11.192;2023-11-19T02:33:26;1.70;;;0.70;;
36827;SDS011;22766;48.042;11.192;2023-11-19T02:35:53;0.60;;;0.50;;
36827;SDS011;22766;48.042;11.192;2023-11-19T02:38:20;0.50;;;0.43;;
36827;SDS011;22766;48.042;11.192;2023-11-19T02:40:48;0.40;;;0.40;;
36827;SDS011;22766;48.042;11.192;2023-11-19T02:43:15;0.77;;;0.50;;
36827;SDS011;22766;48.042;11.192;2023-11-19T02:45:42;0.60;;;0.50;;
36827;SDS011;22766;48.042;11.192;2023-11-19T02:48:12;2.15;;;0.40;;
36827;SDS011;22766;48.042;11.192;2023-11-19T02:50:41;1.95;;;0.45;;
36827;SDS011;22766;48.042;11.192;2023-11-19T02:53:08;0.50;;;0.32;;
36827;SDS011;22766;48.042;11.192;2023-11-19T02:55:35;0.68;;;0.40;;
36827;SDS011;22766;48.042;11.192;2023-11-19T02:58:05;0.32;;;0.32;;
36827;SDS011;22766;48.042;11.192;2023-11-19T03:00:46;1.10;;;0.65;;
36827;SDS011;22766;48.042;11.192;2023-11-19T03:03:24;1.00;;;0.30;;
36827;SDS011;22766;48.042;11.192;2023-11-19T03:05:55;1.45;;;0.40;;
36827;SDS011;22766;48.042;11.192;2023-11-19T03:08:22;0.40;;;0.35;;
36827;SDS011;22766;48.042;11.192;2023-11-19T03:10:49;0.50;;;0.40;;
36827;SDS011;22766;48.042;11.192;2023-11-19T03:13:16;0.47;;;0.35;;
36827;SDS011;22766;48.042;11.192;2023-11-19T03:15:46;1.15;;;0.40;;
36827;SDS011;22766;48.042;11.192;2023-11-19T03:18:13;0.63;;;0.28;;
36827;SDS011;22766;48.042;11.192;2023-11-19T03:20:40;0.45;;;0.22;;
36827;SDS011;22766;48.042;11.192;2023-11-19T03:23:07;0.20;;;0.20;;
36827;SDS011;22766;48.042;11.192;2023-11-19T03:25:33;0.77;;;0.43;;
36827;SDS011;22766;48.042;11.192;2023-11-19T03:28:00;1.10;;;0.30;;
36827;SDS011;22766;48.042;11.192;2023-11-19T03:30:30;0.32;;;0.30;;
36827;SDS011;22766;48.042;11.192;2023-11-19T03:33:01;0.33;;;0.20;;
36827;SDS011;22766;48.042;11.192;2023-11-19T03:35:28;0.47;;;0.30;;
36827;SDS011;22766;48.042;11.192;2023-11-19T03:37:57;0.25;;;0.13;;
36827;SDS011;22766;48.042;11.192;2023-11-19T03:40:23;0.20;;;0.10;;
36827;SDS011;22766;48.042;11.192;2023-11-19T03:42:52;0.28;;;0.20;;
36827;SDS011;22766;48.042;11.192;2023-11-19T03:45:19;0.20;;;0.17;;
36827;SDS011;22766;48.042;11.192;2023-11-19T03:47:46;0.10;;;0.10;;
36827;SDS011;22766;48.042;11.192;2023-11-19T03:50:12;0.55;;;0.13;;
36827;SDS011;22766;48.042;11.192;2023-11-19T03:52:42;0.20;;;0.10;;
36827;SDS011;22766;48.042;11.192;2023-11-19T03:55:10;0.63;;;0.10;;
36827;SDS011;22766;48.042;11.192;2023-11-19T03:57:39;0.25;;;0.10;;
36827;SDS011;22766;48.042;11.192;2023-11-19T04:00:06;0.47;;;0.17;;
36827;SDS011;22766;48.042;11.192;2023-11-19T04:02:40;0.10;;;0.10;;
36827;SDS011;22766;48.042;11.192;2023-11-19T04:05:08;0.20;;;0.17;;
36827;SDS011;22766;48.042;11.192;2023-11-19T04:07:36;0.17;;;0.10;;
36827;SDS011;22766;48.042;11.192;2023-11-19T04:10:03;0.30;;;0.20;;
36827;SDS011;22766;48.042;11.192;2023-11-19T04:12:30;0.30;;;0.20;;
36827;SDS011;22766;48.042;11.192;2023-11-19T04:14:57;0.10;;;0.10;;
36827;SDS011;22766;48.042;11.192;2023-11-19T04:17:27;0.55;;;0.20;;
36827;SDS011;22766;48.042;11.192;2023-11-19T04:19:54;0.40;;;0.20;;
36827;SDS011;22766;48.042;11.192;2023-11-19T04:22:22;0.28;;;0.20;;
36827;SDS011;22766;48.042;11.192;2023-11-19T04:24:49;0.25;;;0.20;;
36827;SDS011;22766;48.042;11.192;2023-11-19T04:27:16;0.25;;;0.25;;
36827;SDS011;22766;48.042;11.192;2023-11-19T04:29:43;1.00;;;0.30;;
36827;SDS011;22766;48.042;11.192;2023-11-19T04:32:10;0.50;;;0.30;;
36827;SDS011;22766;48.042;11.192;2023-11-19T04:34:36;0.60;;;0.20;;
36827;SDS011;22766;48.042;11.192;2023-11-19T04:37:04;0.20;;;0.20;;
36827;SDS011;22766;48.042;11.192;2023-11-19T04:39:34;0.20;;;0.20;;
36827;SDS011;22766;48.042;11.192;2023-11-19T04:42:00;0.75;;;0.40;;
36827;SDS011;22766;48.042;11.192;2023-11-19T04:44:27;0.20;;;0.20;;
36827;SDS011;22766;48.042;11.192;2023-11-19T04:46:56;0.52;;;0.20;;
36827;SDS011;22766;48.042;11.192;2023-11-19T04:49:24;0.20;;;0.17;;
36827;SDS011;22766;48.042;11.192;2023-11-19T04:51:53;0.22;;;0.20;;
36827;SDS011;22766;48.042;11.192;2023-11-19T04:54:20;1.48;;;0.20;;
36827;SDS011;22766;48.042;11.192;2023-11-19T04:56:46;0.13;;;0.13;;
36827;SDS011;22766;48.042;11.192;2023-11-19T04:59:13;1.25;;;0.38;;
36827;SDS011;22766;48.042;11.192;2023-11-19T05:01:40;0.32;;;0.30;;
36827;SDS011;22766;48.042;11.192;2023-11-19T05:04:08;0.20;;;0.20;;
36827;SDS011;22766;48.042;11.192;2023-11-19T05:06:35;0.80;;;0.40;;
36827;SDS011;22766;48.042;11.192;2023-11-19T05:09:02;1.48;;;0.30;;
36827;SDS011;22766;48.042;11.192;2023-11-19T05:14:02;0.35;;;0.10;;
36827;SDS011;22766;48.042;11.192;2023-11-19T05:16:31;0.10;;;0.10;;
36827;SDS011;22766;48.042;11.192;2023-11-19T05:18:58;1.58;;;0.20;;
36827;SDS011;22766;48.042;11.192;2023-11-19T05:21:25;0.20;;;0.20;;
36827;SDS011;22766;48.042;11.192;2023-11-19T05:23:52;1.08;;;0.22;;
36827;SDS011;22766;48.042;11.192;2023-11-19T05:26:21;0.25;;;0.20;;
36827;SDS011;22766;48.042;11.192;2023-11-19T05:28:49;3.05;;;0.25;;
36827;SDS011;22766;48.042;11.192;2023-11-19T05:31:19;0.43;;;0.20;;
36827;SDS011;22766;48.042;11.192;2023-11-19T05:33:46;0.30;;;0.20;;
36827;SDS011;22766;48.042;11.192;2023-11-19T05:36:13;0.10;;;0.10;;
36827;SDS011;22766;48.042;11.192;2023-11-19T05:38:40;0.10;;;0.10;;
36827;SDS011;22766;48.042;11.192;2023-11-19T05:41:06;0.38;;;0.20;;
36827;SDS011;22766;48.042;11.192;2023-11-19T05:43:33;0.20;;;0.15;;
36827;SDS011;22766;48.042;11.192;2023-11-19T05:46:00;0.10;;;0.10;;
36827;SDS011;22766;48.042;11.192;2023-11-19T05:48:43;0.43;;;0.20;;
36827;SDS011;22766;48.042;11.192;2023-11-19T05:51:12;0.10;;;0.10;;
36827;SDS011;22766;48.042;11.192;2023-11-19T05:53:41;0.03;;;0.03;;
36827;SDS011;22766;48.042;11.192;2023-11-19T05:56:08;0.13;;;0.10;;
36827;SDS011;22766;48.042;11.192;2023-11-19T05:58:36;0.10;;;0.10;;
36827;SDS011;22766;48.042;11.192;2023-11-19T06:01:04;0.10;;;0.10;;
36827;SDS011;22766;48.042;11.192;2023-11-19T06:03:31;0.10;;;0.10;;
36827;SDS011;22766;48.042;11.192;2023-11-19T06:05:58;0.10;;;0.10;;
36827;SDS011;22766;48.042;11.192;2023-11-19T06:08:25;0.30;;;0.10;;
36827;SDS011;22766;48.042;11.192;2023-11-19T06:10:53;0.10;;;0.10;;
36827;SDS011;22766;48.042;11.192;2023-11-19T06:13:20;0.30;;;0.30;;
36827;SDS011;22766;48.042;11.192;2023-11-19T06:15:51;0.10;;;0.10;;
36827;SDS011;22766;48.042;11.192;2023-11-19T06:18:18;0.73;;;0.10;;
36827;SDS011;22766;48.042;11.192;2023-11-19T06:20:47;0.20;;;0.20;;
36827;SDS011;22766;48.042;11.192;2023-11-19T06:23:13;0.03;;;0.03;;
36827;SDS011;22766;48.042;11.192;2023-11-19T06:25:40;0.47;;;0.22;;
36827;SDS011;22766;48.042;11.192;2023-11-19T06:28:07;0.40;;;0.28;;
36827;SDS011;22766;48.042;11.192;2023-11-19T06:30:34;0.20;;;0.10;;
36827;SDS011;22766;48.042;11.192;2023-11-19T06:33:02;0.10;;;0.10;;
36827;SDS011;22766;48.042;11.192;2023-11-19T06:35:30;0.57;;;0.30;;
36827;SDS011;22766;48.042;11.192;2023-11-19T06:38:03;0.60;;;0.13;;
36827;SDS011;22766;48.042;11.192;2023-11-19T06:40:33;0.88;;;0.40;;
36827;SDS011;22766;48.042;11.192;2023-11-19T06:43:04;0.20;;;0.20;;
36827;SDS011;22766;48.042;11.192;2023-11-19T06:45:31;3.72;;;1.05;;
36827;SDS011;22766;48.042;11.192;2023-11-19T06:47:59;5.07;;;1.85;;
36827;SDS011;22766;48.042;11.192;2023-11-19T06:50:28;1.70;;;0.88;;
36827;SDS011;22766;48.042;11.192;2023-11-19T06:52:54;0.43;;;0.17;;
36827;SDS011;22766;48.042;11.192;2023-11-19T06:55:21;0.20;;;0.10;;
36827;SDS011;22766;48.042;11.192;2023-11-19T06:57:48;1.60;;;0.65;;
36827;SDS011;22766;48.042;11.192;2023-11-19T07:00:15;2.33;;;0.50;;
36827;SDS011;22766;48.042;11.192;2023-11-19T07:02:43;4.70;;;1.00;;
36827;SDS011;22766;48.042;11.192;2023-11-19T07:05:11;3.67;;;1.20;;
36827;SDS011;22766;48.042;11.192;2023-11-19T07:07:39;4.45;;;1.20;;
36827;SDS011;22766;48.042;11.192;2023-11-19T07:10:07;0.90;;;0.40;;
36827;SDS011;22766;48.042;11.192;2023-11-19T07:12:36;1.45;;;0.60;;
36827;SDS011;22766;48.042;11.192;2023-11-19T07:15:03;0.63;;;0.10;;
36827;SDS011;22766;48.042;11.192;2023-11-19T07:17:30;1.55;;;0.50;;
36827;SDS011;22766;48.042;11.192;2023-11-19T07:19:57;0.15;;;0.10;;
36827;SDS011;22766;48.042;11.192;2023-11-19T07:22:26;1.77;;;0.60;;
36827;SDS011;22766;48.042;11.192;2023-11-19T07:24:56;0.70;;;0.20;;
36827;SDS011;22766;48.042;11.192;2023-11-19T07:27:23;2.03;;;0.60;;
36827;SDS011;22766;48.042;11.192;2023-11-19T07:29:50;1.20;;;0.50;;
36827;SDS011;22766;48.042;11.192;2023-11-19T07:32:18;0.40;;;0.15;;
36827;SDS011;22766;48.042;11.192;2023-11-19T07:34:44;2.75;;;0.77;;
36827;SDS011;22766;48.042;11.192;2023-11-19T07:37:11;1.88;;;1.17;;
36827;SDS011;22766;48.042;11.192;2023-11-19T07:39:39;3.92;;;0.57;;
36827;SDS011;22766;48.042;11.192;2023-11-19T07:42:07;2.10;;;0.57;;
36827;SDS011;22766;48.042;11.192;2023-11-19T07:44:35;0.93;;;0.20;;
36827;SDS011;22766;48.042;11.192;2023-11-19T07:47:03;3.72;;;0.70;;
36827;SDS011;22766;48.042;11.192;2023-11-19T07:49:30;0.10;;;0.10;;
36827;SDS011;22766;48.042;11.192;2023-11-19T07:51:57;0.30;;;0.10;;
36827;SDS011;22766;48.042;11.192;2023-11-19T07:54:24;0.50;;;0.30;;
36827;SDS011;22766;48.042;11.192;2023-11-19T07:56:51;0.20;;;0.20;;
36827;SDS011;22766;48.042;11.192;2023-11-19T07:59:18;0.32;;;0.20;;
36827;SDS011;22766;48.042;11.192;2023-11-19T08:01:44;0.75;;;0.40;;
36827;SDS011;22766;48.042;11.192;2023-11-19T08:04:11;0.30;;;0.10;;
36827;SDS011;22766;48.042;11.192;2023-11-19T08:06:38;0.10;;;0.10;;
36827;SDS011;22766;48.042;11.192;2023-11-19T08:09:05;0.20;;;0.10;;
36827;SDS011;22766;48.042;11.192;2023-11-19T08:11:33;0.10;;;0.10;;
36827;SDS011;22766;48.042;11.192;2023-11-19T08:14:00;0.10;;;0.10;;
36827;SDS011;22766;48.042;11.192;2023-11-19T08:16:26;0.10;;;0.10;;
36827;SDS011;22766;48.042;11.192;2023-11-19T08:18:53;0.30;;;0.30;;
36827;SDS011;22766;48.042;11.192;2023-11-19T08:21:20;0.20;;;0.10;;
36827;SDS011;22766;48.042;11.192;2023-11-19T08:23:49;0.68;;;0.30;;
36827;SDS011;22766;48.042;11.192;2023-11-19T08:26:16;0.40;;;0.22;;
36827;SDS011;22766;48.042;11.192;2023-11-19T08:28:47;0.95;;;0.40;;
36827;SDS011;22766;48.042;11.192;2023-11-19T08:31:14;0.45;;;0.30;;
36827;SDS011;22766;48.042;11.192;2023-11-19T08:33:41;0.57;;;0.57;;
36827;SDS011;22766;48.042;11.192;2023-11-19T08:36:08;1.30;;;0.20;;
36827;SDS011;22766;48.042;11.192;2023-11-19T08:38:35;0.13;;;0.13;;
36827;SDS011;22766;48.042;11.192;2023-11-19T08:41:02;0.20;;;0.10;;
36827;SDS011;22766;48.042;11.192;2023-11-19T08:43:29;0.82;;;0.10;;
36827;SDS011;22766;48.042;11.192;2023-11-19T08:45:57;2.85;;;0.52;;
36827;SDS011;22766;48.042;11.192;2023-11-19T08:48:24;0.40;;;0.30;;
36827;SDS011;22766;48.042;11.192;2023-11-19T08:50:52;0.60;;;0.13;;
36827;SDS011;22766;48.042;11.192;2023-11-19T08:53:19;0.77;;;0.28;;
36827;SDS011;22766;48.042;11.192;2023-11-19T08:55:46;0.20;;;0.20;;
36827;SDS011;22766;48.042;11.192;2023-11-19T08:58:12;0.30;;;0.20;;
36827;SDS011;22766;48.042;11.192;2023-11-19T09:00:39;0.10;;;0.10;;
36827;SDS011;22766;48.042;11.192;2023-11-19T09:03:07;0.57;;;0.20;;
36827;SDS011;22766;48.042;11.192;2023-11-19T09:05:35;1.67;;;0.40;;
36827;SDS011;22766;48.042;11.192;2023-11-19T09:08:03;0.17;;;0.17;;
36827;SDS011;22766;48.042;11.192;2023-11-19T09:10:31;0.40;;;0.30;;
36827;SDS011;22766;48.042;11.192;2023-11-19T09:12:58;0.28;;;0.20;;
36827;SDS011;22766;48.042;11.192;2023-11-19T09:15:24;0.40;;;0.10;;
36827;SDS011;22766;48.042;11.192;2023-11-19T09:17:51;0.47;;;0.20;;
36827;SDS011;22766;48.042;11.192;2023-11-19T09:20:18;0.45;;;0.10;;
36827;SDS011;22766;48.042;11.192;2023-11-19T09:22:45;0.22;;;0.20;;
36827;SDS011;22766;48.042;11.192;2023-11-19T09:25:12;0.38;;;0.28;;
36827;SDS011;22766;48.042;11.192;2023-11-19T09:27:43;0.10;;;0.10;;
36827;SDS011;22766;48.042;11.192;2023-11-19T09:30:10;2.15;;;0.50;;
36827;SDS011;22766;48.042;11.192;2023-11-19T09:32:37;1.08;;;0.40;;
36827;SDS011;22766;48.042;11.192;2023-11-19T09:35:05;0.20;;;0.20;;
36827;SDS011;22766;48.042;11.192;2023-11-19T09:37:32;0.80;;;0.20;;
36827;SDS011;22766;48.042;11.192;2023-11-19T09:40:02;0.77;;;0.20;;
36827;SDS011;22766;48.042;11.192;2023-11-19T09:42:30;0.30;;;0.20;;
36827;SDS011;22766;48.042;11.192;2023-11-19T09:45:04;0.30;;;0.20;;
36827;SDS011;22766;48.042;11.192;2023-11-19T09:47:39;0.22;;;0.20;;
36827;SDS011;22766;48.042;11.192;2023-11-19T09:50:07;1.05;;;0.68;;
36827;SDS011;22766;48.042;11.192;2023-11-19T09:52:35;0.40;;;0.35;;
36827;SDS011;22766;48.042;11.192;2023-11-19T09:55:02;1.45;;;0.25;;
36827;SDS011;22766;48.042;11.192;2023-11-19T09:57:29;0.32;;;0.22;;
36827;SDS011;22766;48.042;11.192;2023-11-19T09:59:59;0.10;;;0.10;;
36827;SDS011;22766;48.042;11.192;2023-11-19T10:02:26;0.20;;;0.20;;
36827;SDS011;22766;48.042;11.192;2023-11-19T10:04:57;0.73;;;0.20;;
36827;SDS011;22766;48.042;11.192;2023-11-19T10:07:25;1.08;;;0.20;;
36827;SDS011;22766;48.042;11.192;2023-11-19T10:09:53;0.10;;;0.10;;
36827;SDS011;22766;48.042;11.192;2023-11-19T10:12:19;0.32;;;0.20;;
36827;SDS011;22766;48.042;11.192;2023-11-19T10:14:46;0.20;;;0.20;;
36827;SDS011;22766;48.042;11.192;2023-11-19T10:17:14;0.63;;;0.20;;
36827;SDS011;22766;48.042;11.192;2023-11-19T10:19:41;0.22;;;0.20;;
36827;SDS011;22766;48.042;11.192;2023-11-19T10:22:08;0.28;;;0.15;;
36827;SDS011;22766;48.042;11.192;2023-11-19T10:24:34;0.30;;;0.30;;
36827;SDS011;22766;48.042;11.192;2023-11-19T10:27:07;0.10;;;0.10;;
36827;SDS011;22766;48.042;11.192;2023-11-19T10:29:38;0.20;;;0.20;;
36827;SDS011;22766;48.042;11.192;2023-11-19T10:32:05;0.20;;;0.10;;
36827;SDS011;22766;48.042;11.192;2023-11-19T10:34:52;0.60;;;0.20;;
36827;SDS011;22766;48.042;11.192;2023-11-19T10:37:28;0.32;;;0.20;;
36827;SDS011;22766;48.042;11.192;2023-11-19T10:39:59;0.15;;;0.15;;
36827;SDS011;22766;48.042;11.192;2023-11-19T10:42:26;0.47;;;0.20;;
36827;SDS011;22766;48.042;11.192;2023-11-19T10:44:53;0.10;;;0.10;;
36827;SDS011;22766;48.042;11.192;2023-11-19T10:47:20;0.75;;;0.30;;
36827;SDS011;22766;48.042;11.192;2023-11-19T10:49:53;0.55;;;0.28;;
36827;SDS011;22766;48.042;11.192;2023-11-19T10:52:19;0.30;;;0.20;;
36827;SDS011;22766;48.042;11.192;2023-11-19T10:54:50;0.20;;;0.20;;
36827;SDS011;22766;48.042;11.192;2023-11-19T10:57:19;0.32;;;0.10;;
36827;SDS011;22766;48.042;11.192;2023-11-19T10:59:55;0.30;;;0.20;;
36827;SDS011;22766;48.042;11.192;2023-11-19T11:02:28;1.35;;;0.38;;
36827;SDS011;22766;48.042;11.192;2023-11-19T11:05:01;0.35;;;0.30;;
36827;SDS011;22766;48.042;11.192;2023-11-19T11:07:29;0.77;;;0.40;;
36827;SDS011;22766;48.042;11.192;2023-11-19T11:10:07;0.28;;;0.22;;
36827;SDS011;22766;48.042;11.192;2023-11-19T11:12:36;0.10;;;0.10;;
36827;SDS011;22766;48.042;11.192;2023-11-19T11:15:08;0.38;;;0.20;;
36827;SDS011;22766;48.042;11.192;2023-11-19T11:17:42;0.22;;;0.22;;
36827;SDS011;22766;48.042;11.192;2023-11-19T11:20:11;0.20;;;0.20;;
36827;SDS011;22766;48.042;11.192;2023-11-19T11:30:34;0.43;;;0.10;;
36827;SDS011;22766;48.042;11.192;2023-11-19T11:38:35;0.10;;;0.10;;
36827;SDS011;22766;48.042;11.192;2023-11-19T11:41:16;0.25;;;0.17;;
36827;SDS011;22766;48.042;11.192;2023-11-19T11:49:07;0.90;;;0.10;;
36827;SDS011;22766;48.042;11.192;2023-11-19T11:54:11;0.28;;;0.28;;
36827;SDS011;22766;48.042;11.192;2023-11-19T11:57:05;0.20;;;0.10;;
36827;SDS011;22766;48.042;11.192;2023-11-19T12:02:11;0.17;;;0.10;;
36827;SDS011;22766;48.042;11.192;2023-11-19T12:04:40;0.10;;;0.10;;
36827;SDS011;22766;48.042;11.192;2023-11-19T12:07:17;0.15;;;0.13;;
36827;SDS011;22766;48.042;11.192;2023-11-19T12:09:48;0.50;;;0.50;;
36827;SDS011;22766;48.042;11.192;2023-11-19T12:12:39;8.45;;;0.25;;
36827;SDS011;22766;48.042;11.192;2023-11-19T12:15:08;2.05;;;0.10;;
36827;SDS011;22766;48.042;11.192;2023-11-19T12:17:37;0.10;;;0.10;;
36827;SDS011;22766;48.042;11.192;2023-11-19T12:20:10;1.23;;;0.20;;
36827;SDS011;22766;48.042;11.192;2023-11-19T12:22:38;0.55;;;0.20;;
36827;SDS011;22766;48.042;11.192;2023-11-19T12:25:07;0.30;;;0.20;;
36827;SDS011;22766;48.042;11.192;2023-11-19T12:27:49;0.45;;;0.20;;
36827;SDS011;22766;48.042;11.192;2023-11-19T12:30:20;0.43;;;0.20;;
36827;SDS011;22766;48.042;11.192;2023-11-19T12:32:52;0.45;;;0.13;;
36827;SDS011;22766;48.042;11.192;2023-11-19T12:35:22;0.20;;;0.10;;
36827;SDS011;22766;48.042;11.192;2023-11-19T12:37:50;0.20;;;0.20;;
36827;SDS011;22766;48.042;11.192;2023-11-19T12:40:23;0.20;;;0.10;;
36827;SDS011;22766;48.042;11.192;2023-11-19T12:42:51;0.50;;;0.25;;
36827;SDS011;22766;48.042;11.192;2023-11-19T12:45:23;0.25;;;0.10;;
36827;SDS011;22766;48.042;11.192;2023-11-19T12:48:03;0.30;;;0.10;;
36827;SDS011;22766;48.042;11.192;2023-11-19T12:50:49;0.10;;;0.10;;
36827;SDS011;22766;48.042;11.192;2023-11-19T12:53:24;0.10;;;0.10;;
36827;SDS011;22766;48.042;11.192;2023-11-19T12:55:52;0.20;;;0.20;;
36827;SDS011;22766;48.042;11.192;2023-11-19T12:58:31;1.20;;;0.20;;
36827;SDS011;22766;48.042;11.192;2023-11-19T13:01:03;0.50;;;0.30;;
36827;SDS011;22766;48.042;11.192;2023-11-19T13:03:32;0.70;;;0.30;;
36827;SDS011;22766;48.042;11.192;2023-11-19T13:08:44;2.47;;;0.60;;
36827;SDS011;22766;48.042;11.192;2023-11-19T13:11:12;1.10;;;0.50;;
36827;SDS011;22766;48.042;11.192;2023-11-19T13:16:32;0.30;;;0.20;;
36827;SDS011;22766;48.042;11.192;2023-11-19T13:18:59;1.27;;;0.25;;
36827;SDS011;22766;48.042;11.192;2023-11-19T13:21:29;0.20;;;0.20;;
36827;SDS011;22766;48.042;11.192;2023-11-19T13:23:56;1.58;;;0.20;;
36827;SDS011;22766;48.042;11.192;2023-11-19T13:26:23;0.20;;;0.10;;
36827;SDS011;22766;48.042;11.192;2023-11-19T13:28:50;0.20;;;0.20;;
36827;SDS011;22766;48.042;11.192;2023-11-19T13:31:18;0.22;;;0.20;;
36827;SDS011;22766;48.042;11.192;2023-11-19T13:33:45;0.25;;;0.10;;
36827;SDS011;22766;48.042;11.192;2023-11-19T13:36:12;0.32;;;0.30;;
36827;SDS011;22766;48.042;11.192;2023-11-19T13:38:42;0.23;;;0.20;;
36827;SDS011;22766;48.042;11.192;2023-11-19T13:41:11;0.43;;;0.20;;
36827;SDS011;22766;48.042;11.192;2023-11-19T13:43:39;2.08;;;0.20;;
36827;SDS011;22766;48.042;11.192;2023-11-19T13:46:06;0.30;;;0.10;;
36827;SDS011;22766;48.042;11.192;2023-11-19T13:48:32;0.10;;;0.10;;
36827;SDS011;22766;48.042;11.192;2023-11-19T13:50:59;0.20;;;0.10;;
36827;SDS011;22766;48.042;11.192;2023-11-19T13:53:26;0.47;;;0.10;;
36827;SDS011;22766;48.042;11.192;2023-11-19T13:55:53;0.10;;;0.10;;
36827;SDS011;22766;48.042;11.192;2023-11-19T13:58:20;0.20;;;0.20;;
36827;SDS011;22766;48.042;11.192;2023-11-19T14:00:47;2.42;;;0.40;;
36827;SDS011;22766;48.042;11.192;2023-11-19T14:03:14;0.25;;;0.15;;
36827;SDS011;22766;48.042;11.192;2023-11-19T14:05:41;0.10;;;0.10;;
36827;SDS011;22766;48.042;11.192;2023-11-19T14:08:08;0.10;;;0.10;;
36827;SDS011;22766;48.042;11.192;2023-11-19T14:10:51;0.40;;;0.10;;
36827;SDS011;22766;48.042;11.192;2023-11-19T14:13:18;0.57;;;0.20;;
36827;SDS011;22766;48.042;11.192;2023-11-19T14:15:45;1.83;;;0.10;;
36827;SDS011;22766;48.042;11.192;2023-11-19T14:18:16;1.55;;;0.10;;
36827;SDS011;22766;48.042;11.192;2023-11-19T14:20:43;1.67;;;0.15;;
36827;SDS011;22766;48.042;11.192;2023-11-19T14:23:10;0.10;;;0.10;;
36827;SDS011;22766;48.042;11.192;2023-11-19T14:25:37;0.28;;;0.13;;
36827;SDS011;22766;48.042;11.192;2023-11-19T14:28:04;0.50;;;0.17;;
36827;SDS011;22766;48.042;11.192;2023-11-19T14:30:32;0.10;;;0.10;;
36827;SDS011;22766;48.042;11.192;2023-11-19T14:33:00;0.20;;;0.20;;
36827;SDS011;22766;48.042;11.192;2023-11-19T14:35:27;2.65;;;0.20;;
36827;SDS011;22766;48.042;11.192;2023-11-19T14:37:56;0.30;;;0.17;;
36827;SDS011;22766;48.042;11.192;2023-11-19T14:40:23;0.13;;;0.13;;
36827;SDS011;22766;48.042;11.192;2023-11-19T14:43:08;0.20;;;0.10;;
36827;SDS011;22766;48.042;11.192;2023-11-19T14:45:38;1.13;;;0.30;;
36827;SDS011;22766;48.042;11.192;2023-11-19T14:48:15;0.20;;;0.20;;
36827;SDS011;22766;48.042;11.192;2023-11-19T14:50:42;2.50;;;0.20;;
36827;SDS011;22766;48.042;11.192;2023-11-19T14:53:08;0.90;;;0.10;;
36827;SDS011;22766;48.042;11.192;2023-11-19T14:55:36;0.40;;;0.30;;
36827;SDS011;22766;48.042;11.192;2023-11-19T14:58:02;1.75;;;0.25;;
36827;SDS011;22766;48.042;11.192;2023-11-19T15:00:36;0.40;;;0.25;;
36827;SDS011;22766;48.042;11.192;2023-11-19T15:03:03;2.88;;;0.20;;
36827;SDS011;22766;48.042;11.192;2023-11-19T15:05:30;0.15;;;0.15;;
36827;SDS011;22766;48.042;11.192;2023-11-19T15:07:57;0.30;;;0.10;;
36827;SDS011;22766;48.042;11.192;2023-11-19T15:10:23;1.63;;;0.75;;
36827;SDS011;22766;48.042;11.192;2023-11-19T15:12:52;0.10;;;0.10;;
36827;SDS011;22766;48.042;11.192;2023-11-19T15:15:21;1.75;;;0.40;;